CheckWX is a tool to help pilots better visualize weather data.  It is not intended as a substitute for an official pre-flight weather briefing.

12:52:16 UTC

KWRI TAF
Mc Guire Field (Joint Base Mc Guire Dix Lakehurst) Airport
Wrightstown, New Jersey, USA
TAF KWRI 271000Z 2710/2816 32006KT 9999 FEW250 QNH3005INS BECMG 2723/2724 VRB06KT 9999 SKC QNH3008INS BECMG 2810/2811 29006KT 9999 SCT050 QNH3010INS TX33/2719Z TN20/2710Z

Jun-27@
10:00 UTC

Jun-27 @ 10:00 UTC

Jun-27@
23:00 UTC

Jun-27 @ 23:00 UTC

TAF KWRI 271000Z 2710/2816 32006KT 9999 FEW250 QNH3005INS
Wind
  • 320° at 6 KTS
Cloud Levels
  • Few at 25,000' AGL

Jun-27@
23:00 UTC

Jun-27 @ 23:00 UTC

Jun-28@
10:00 UTC

Jun-28 @ 10:00 UTC

BECMG 2723/2724 VRB06KT 9999 SKC QNH3008INS

Becoming

Becoming Conditions expected by Fri, Jun 28, 2019 @ 00:00 UTC

Wind
  • Variable at 6 KTS
Cloud Levels
  • Clear skies

Jun-28@
10:00 UTC

Jun-28 @ 10:00 UTC

Jun-28@
16:00 UTC

Jun-28 @ 16:00 UTC

BECMG 2810/2811 29006KT 9999 SCT050 QNH3010INS TX33/2719Z TN20/2710Z

Becoming

Becoming Conditions expected by Fri, Jun 28, 2019 @ 11:00 UTC

Wind
  • 290° at 6 KTS
Cloud Levels
  • Scattered at 5,000' AGL